sensor_id;sensor_type;location;lat;lon;timestamp;temperature;humidity
61004;DHT22;46889;37.310;13.582;2023-02-23T00:01:28;11.50;99.90
61004;DHT22;46889;37.310;13.582;2023-02-23T00:03:58;11.50;99.90
61004;DHT22;46889;37.310;13.582;2023-02-23T00:06:26;11.40;99.90
61004;DHT22;46889;37.310;13.582;2023-02-23T00:08:52;11.40;99.90
61004;DHT22;46889;37.310;13.582;2023-02-23T00:11:19;11.40;99.90
61004;DHT22;46889;37.310;13.582;2023-02-23T00:13:46;11.40;99.90
61004;DHT22;46889;37.310;13.582;2023-02-23T00:16:22;11.30;99.90
61004;DHT22;46889;37.310;13.582;2023-02-23T00:18:52;11.40;99.90
61004;DHT22;46889;37.310;13.582;2023-02-23T00:21:28;11.40;99.90
61004;DHT22;46889;37.310;13.582;2023-02-23T00:24:02;11.40;99.90
61004;DHT22;46889;37.310;13.582;2023-02-23T00:26:30;11.30;99.90
61004;DHT22;46889;37.310;13.582;2023-02-23T00:29:01;11.30;99.90
61004;DHT22;46889;37.310;13.582;2023-02-23T00:31:28;11.20;99.90
61004;DHT22;46889;37.310;13.582;2023-02-23T00:34:00;11.20;99.90
61004;DHT22;46889;37.310;13.582;2023-02-23T00:36:28;11.20;99.90
61004;DHT22;46889;37.310;13.582;2023-02-23T00:38:57;11.20;99.90
61004;DHT22;46889;37.310;13.582;2023-02-23T00:41:23;11.20;99.90
61004;DHT22;46889;37.310;13.582;2023-02-23T00:43:59;11.20;99.90
61004;DHT22;46889;37.310;13.582;2023-02-23T00:46:27;11.20;99.90
61004;DHT22;46889;37.310;13.582;2023-02-23T00:48:56;11.20;99.90
61004;DHT22;46889;37.310;13.582;2023-02-23T00:51:25;11.20;99.90
61004;DHT22;46889;37.310;13.582;2023-02-23T00:53:58;11.20;99.90
61004;DHT22;46889;37.310;13.582;2023-02-23T00:56:26;11.30;99.90
61004;DHT22;46889;37.310;13.582;2023-02-23T00:58:53;11.30;99.90
61004;DHT22;46889;37.310;13.582;2023-02-23T01:01:19;11.40;99.90
61004;DHT22;46889;37.310;13.582;2023-02-23T01:03:45;11.30;99.90
61004;DHT22;46889;37.310;13.582;2023-02-23T01:06:14;11.30;99.90
61004;DHT22;46889;37.310;13.582;2023-02-23T01:08:43;11.20;99.90
61004;DHT22;46889;37.310;13.582;2023-02-23T01:11:15;11.20;99.90
61004;DHT22;46889;37.310;13.582;2023-02-23T01:13:44;11.20;99.90
61004;DHT22;46889;37.310;13.582;2023-02-23T01:16:14;11.10;99.90
61004;DHT22;46889;37.310;13.582;2023-02-23T01:18:42;11.10;99.90
61004;DHT22;46889;37.310;13.582;2023-02-23T01:23:48;11.00;99.90
61004;DHT22;46889;37.310;13.582;2023-02-23T01:26:18;11.00;99.90
61004;DHT22;46889;37.310;13.582;2023-02-23T01:28:50;10.90;99.90
61004;DHT22;46889;37.310;13.582;2023-02-23T01:31:17;10.80;99.90
61004;DHT22;46889;37.310;13.582;2023-02-23T01:33:43;10.70;99.90
61004;DHT22;46889;37.310;13.582;2023-02-23T01:36:09;10.70;99.90
61004;DHT22;46889;37.310;13.582;2023-02-23T01:38:35;10.80;99.90
61004;DHT22;46889;37.310;13.582;2023-02-23T01:41:01;10.90;99.90
61004;DHT22;46889;37.310;13.582;2023-02-23T01:43:28;10.80;99.90
61004;DHT22;46889;37.310;13.582;2023-02-23T01:45:56;10.80;99.90
61004;DHT22;46889;37.310;13.582;2023-02-23T01:48:31;10.70;99.90
61004;DHT22;46889;37.310;13.582;2023-02-23T01:53:30;10.70;99.90
61004;DHT22;46889;37.310;13.582;2023-02-23T01:56:10;10.70;99.90
61004;DHT22;46889;37.310;13.582;2023-02-23T01:58:46;10.80;99.90
61004;DHT22;46889;37.310;13.582;2023-02-23T02:01:13;10.80;99.90
61004;DHT22;46889;37.310;13.582;2023-02-23T02:04:03;10.80;99.90
61004;DHT22;46889;37.310;13.582;2023-02-23T02:06:34;10.70;99.90
61004;DHT22;46889;37.310;13.582;2023-02-23T02:09:06;10.80;99.90
61004;DHT22;46889;37.310;13.582;2023-02-23T02:11:34;10.90;99.90
61004;DHT22;46889;37.310;13.582;2023-02-23T02:14:19;11.00;99.90
61004;DHT22;46889;37.310;13.582;2023-02-23T02:17:11;11.00;99.90
61004;DHT22;46889;37.310;13.582;2023-02-23T02:19:58;10.90;99.90
61004;DHT22;46889;37.310;13.582;2023-02-23T02:22:53;10.90;99.90
61004;DHT22;46889;37.310;13.582;2023-02-23T02:28:40;10.80;99.90
61004;DHT22;46889;37.310;13.582;2023-02-23T02:39:59;10.80;99.90
61004;DHT22;46889;37.310;13.582;2023-02-23T02:43:02;10.80;99.90
61004;DHT22;46889;37.310;13.582;2023-02-23T02:45:55;10.70;99.90
61004;DHT22;46889;37.310;13.582;2023-02-23T02:48:52;10.70;99.90
61004;DHT22;46889;37.310;13.582;2023-02-23T02:51:47;10.70;99.90
61004;DHT22;46889;37.310;13.582;2023-02-23T02:54:28;10.80;99.90
61004;DHT22;46889;37.310;13.582;2023-02-23T02:56:57;10.70;99.90
61004;DHT22;46889;37.310;13.582;2023-02-23T02:59:25;10.80;99.90
61004;DHT22;46889;37.310;13.582;2023-02-23T03:02:16;10.80;99.90
61004;DHT22;46889;37.310;13.582;2023-02-23T03:05:01;10.80;99.90
61004;DHT22;46889;37.310;13.582;2023-02-23T03:07:57;10.90;99.90
61004;DHT22;46889;37.310;13.582;2023-02-23T03:11:04;10.90;99.90
61004;DHT22;46889;37.310;13.582;2023-02-23T03:26:08;10.90;99.90
61004;DHT22;46889;37.310;13.582;2023-02-23T03:29:18;10.90;99.90
61004;DHT22;46889;37.310;13.582;2023-02-23T03:32:14;10.80;99.90
61004;DHT22;46889;37.310;13.582;2023-02-23T03:38:06;10.90;99.90
61004;DHT22;46889;37.310;13.582;2023-02-23T03:40:54;10.90;99.90
61004;DHT22;46889;37.310;13.582;2023-02-23T03:43:46;10.90;99.90
61004;DHT22;46889;37.310;13.582;2023-02-23T03:46:34;10.90;99.90
61004;DHT22;46889;37.310;13.582;2023-02-23T03:49:20;10.80;99.90
61004;DHT22;46889;37.310;13.582;2023-02-23T03:52:15;10.80;99.90
61004;DHT22;46889;37.310;13.582;2023-02-23T03:55:09;10.80;99.90
61004;DHT22;46889;37.310;13.582;2023-02-23T03:57:58;10.70;99.90
61004;DHT22;46889;37.310;13.582;2023-02-23T04:00:46;10.70;99.90
61004;DHT22;46889;37.310;13.582;2023-02-23T04:03:32;10.80;99.90
61004;DHT22;46889;37.310;13.582;2023-02-23T04:06:18;10.90;99.90
61004;DHT22;46889;37.310;13.582;2023-02-23T04:09:06;10.90;99.90
61004;DHT22;46889;37.310;13.582;2023-02-23T04:15:07;10.90;99.90
61004;DHT22;46889;37.310;13.582;2023-02-23T04:17:35;10.90;99.90
61004;DHT22;46889;37.310;13.582;2023-02-23T04:20:03;10.90;99.90
61004;DHT22;46889;37.310;13.582;2023-02-23T04:22:29;10.90;99.90
61004;DHT22;46889;37.310;13.582;2023-02-23T04:24:55;10.90;99.90
61004;DHT22;46889;37.310;13.582;2023-02-23T04:27:21;10.90;99.90
61004;DHT22;46889;37.310;13.582;2023-02-23T04:29:47;10.90;99.90
61004;DHT22;46889;37.310;13.582;2023-02-23T04:32:15;11.00;99.90
61004;DHT22;46889;37.310;13.582;2023-02-23T04:34:43;10.90;99.90
61004;DHT22;46889;37.310;13.582;2023-02-23T04:37:11;10.90;99.90
61004;DHT22;46889;37.310;13.582;2023-02-23T04:39:37;10.90;99.90
61004;DHT22;46889;37.310;13.582;2023-02-23T04:42:04;10.90;99.90
61004;DHT22;46889;37.310;13.582;2023-02-23T04:44:30;10.80;99.90
61004;DHT22;46889;37.310;13.582;2023-02-23T04:46:56;10.90;99.90
61004;DHT22;46889;37.310;13.582;2023-02-23T04:49:23;10.90;99.90
61004;DHT22;46889;37.310;13.582;2023-02-23T04:51:49;10.90;99.90
61004;DHT22;46889;37.310;13.582;2023-02-23T04:54:15;10.80;99.90
61004;DHT22;46889;37.310;13.582;2023-02-23T04:56:41;10.80;99.90
61004;DHT22;46889;37.310;13.582;2023-02-23T04:59:07;10.80;99.90
61004;DHT22;46889;37.310;13.582;2023-02-23T05:01:33;10.80;99.90
61004;DHT22;46889;37.310;13.582;2023-02-23T05:04:01;10.80;99.90
61004;DHT22;46889;37.310;13.582;2023-02-23T05:06:28;10.90;99.90
61004;DHT22;46889;37.310;13.582;2023-02-23T05:08:54;10.90;99.90
61004;DHT22;46889;37.310;13.582;2023-02-23T05:11:20;11.00;99.90
61004;DHT22;46889;37.310;13.582;2023-02-23T05:13:46;11.00;99.90
61004;DHT22;46889;37.310;13.582;2023-02-23T05:16:12;10.90;99.90
61004;DHT22;46889;37.310;13.582;2023-02-23T05:18:38;10.70;99.90
61004;DHT22;46889;37.310;13.582;2023-02-23T05:21:07;10.70;99.90
61004;DHT22;46889;37.310;13.582;2023-02-23T05:23:36;10.60;99.90
61004;DHT22;46889;37.310;13.582;2023-02-23T05:26:05;10.60;99.90
61004;DHT22;46889;37.310;13.582;2023-02-23T05:28:33;10.60;99.90
61004;DHT22;46889;37.310;13.582;2023-02-23T05:31:00;10.70;99.90
61004;DHT22;46889;37.310;13.582;2023-02-23T05:33:26;10.70;99.90
61004;DHT22;46889;37.310;13.582;2023-02-23T05:35:52;10.80;99.90
61004;DHT22;46889;37.310;13.582;2023-02-23T05:38:18;10.70;99.90
61004;DHT22;46889;37.310;13.582;2023-02-23T05:40:46;10.70;99.90
61004;DHT22;46889;37.310;13.582;2023-02-23T05:43:13;10.60;99.90
61004;DHT22;46889;37.310;13.582;2023-02-23T05:45:40;10.50;99.90
61004;DHT22;46889;37.310;13.582;2023-02-23T05:48:07;10.50;99.90
61004;DHT22;46889;37.310;13.582;2023-02-23T05:50:33;10.50;99.90
61004;DHT22;46889;37.310;13.582;2023-02-23T05:53:00;10.70;99.90
61004;DHT22;46889;37.310;13.582;2023-02-23T05:55:27;10.70;99.90
61004;DHT22;46889;37.310;13.582;2023-02-23T05:57:53;10.40;99.90
61004;DHT22;46889;37.310;13.582;2023-02-23T06:00:20;10.50;99.90
61004;DHT22;46889;37.310;13.582;2023-02-23T06:02:46;10.60;99.90
61004;DHT22;46889;37.310;13.582;2023-02-23T06:05:12;10.70;99.90
61004;DHT22;46889;37.310;13.582;2023-02-23T06:07:40;10.80;99.90
61004;DHT22;46889;37.310;13.582;2023-02-23T06:10:06;10.80;99.90
61004;DHT22;46889;37.310;13.582;2023-02-23T06:12:32;10.80;99.90
61004;DHT22;46889;37.310;13.582;2023-02-23T06:14:59;10.90;99.90
61004;DHT22;46889;37.310;13.582;2023-02-23T06:17:25;11.10;99.90
61004;DHT22;46889;37.310;13.582;2023-02-23T06:19:51;11.50;99.90
61004;DHT22;46889;37.310;13.582;2023-02-23T06:22:17;11.80;99.90
61004;DHT22;46889;37.310;13.582;2023-02-23T06:24:43;12.00;99.90
61004;DHT22;46889;37.310;13.582;2023-02-23T06:27:10;12.40;99.90
61004;DHT22;46889;37.310;13.582;2023-02-23T06:29:38;12.50;99.90
61004;DHT22;46889;37.310;13.582;2023-02-23T06:32:04;12.60;99.90
61004;DHT22;46889;37.310;13.582;2023-02-23T06:34:30;13.10;99.90
61004;DHT22;46889;37.310;13.582;2023-02-23T06:36:58;13.40;99.90
61004;DHT22;46889;37.310;13.582;2023-02-23T06:39:24;13.80;99.90
61004;DHT22;46889;37.310;13.582;2023-02-23T06:41:50;14.20;99.90
61004;DHT22;46889;37.310;13.582;2023-02-23T06:44:17;14.50;99.90
61004;DHT22;46889;37.310;13.582;2023-02-23T06:46:43;15.10;99.90
61004;DHT22;46889;37.310;13.582;2023-02-23T06:49:10;16.00;99.90
61004;DHT22;46889;37.310;13.582;2023-02-23T06:51:36;17.30;99.90
61004;DHT22;46889;37.310;13.582;2023-02-23T06:54:03;17.60;99.90
61004;DHT22;46889;37.310;13.582;2023-02-23T06:56:31;16.90;99.90
61004;DHT22;46889;37.310;13.582;2023-02-23T06:58:57;15.90;99.90
61004;DHT22;46889;37.310;13.582;2023-02-23T07:01:23;16.40;99.90
61004;DHT22;46889;37.310;13.582;2023-02-23T07:03:49;17.20;99.90
61004;DHT22;46889;37.310;13.582;2023-02-23T07:06:16;18.40;99.90
61004;DHT22;46889;37.310;13.582;2023-02-23T07:08:42;18.50;99.90
61004;DHT22;46889;37.310;13.582;2023-02-23T07:11:09;18.20;99.90
61004;DHT22;46889;37.310;13.582;2023-02-23T07:13:36;18.20;99.90
61004;DHT22;46889;37.310;13.582;2023-02-23T07:16:02;17.60;99.90
61004;DHT22;46889;37.310;13.582;2023-02-23T07:18:28;17.40;99.90
61004;DHT22;46889;37.310;13.582;2023-02-23T07:20:54;18.00;99.90
61004;DHT22;46889;37.310;13.582;2023-02-23T07:23:20;17.50;99.90
61004;DHT22;46889;37.310;13.582;2023-02-23T07:25:51;17.50;99.90
61004;DHT22;46889;37.310;13.582;2023-02-23T07:28:17;16.30;99.90
61004;DHT22;46889;37.310;13.582;2023-02-23T07:30:45;17.30;99.90
61004;DHT22;46889;37.310;13.582;2023-02-23T07:33:12;16.90;99.90
61004;DHT22;46889;37.310;13.582;2023-02-23T07:35:39;16.20;99.90
61004;DHT22;46889;37.310;13.582;2023-02-23T07:38:05;16.40;99.90
61004;DHT22;46889;37.310;13.582;2023-02-23T07:40:32;16.30;99.90
61004;DHT22;46889;37.310;13.582;2023-02-23T07:42:58;16.30;99.90
61004;DHT22;46889;37.310;13.582;2023-02-23T07:45:25;16.40;99.90
61004;DHT22;46889;37.310;13.582;2023-02-23T07:47:51;16.30;99.90
61004;DHT22;46889;37.310;13.582;2023-02-23T07:50:35;15.80;99.90
61004;DHT22;46889;37.310;13.582;2023-02-23T07:53:03;15.60;99.90
61004;DHT22;46889;37.310;13.582;2023-02-23T07:55:29;15.60;99.90
61004;DHT22;46889;37.310;13.582;2023-02-23T07:57:55;15.70;99.90
61004;DHT22;46889;37.310;13.582;2023-02-23T08:00:22;15.70;99.90
61004;DHT22;46889;37.310;13.582;2023-02-23T08:02:50;15.60;99.90
61004;DHT22;46889;37.310;13.582;2023-02-23T08:05:18;15.80;99.90
61004;DHT22;46889;37.310;13.582;2023-02-23T08:07:44;16.00;99.90
61004;DHT22;46889;37.310;13.582;2023-02-23T08:10:12;16.30;99.90
61004;DHT22;46889;37.310;13.582;2023-02-23T08:12:38;16.40;99.90
61004;DHT22;46889;37.310;13.582;2023-02-23T08:15:04;16.70;99.90
61004;DHT22;46889;37.310;13.582;2023-02-23T08:17:35;16.50;99.90
61004;DHT22;46889;37.310;13.582;2023-02-23T08:20:01;17.00;99.90
61004;DHT22;46889;37.310;13.582;2023-02-23T08:22:28;16.70;99.90
61004;DHT22;46889;37.310;13.582;2023-02-23T08:24:57;16.60;99.90
61004;DHT22;46889;37.310;13.582;2023-02-23T08:27:23;16.40;99.90
61004;DHT22;46889;37.310;13.582;2023-02-23T08:29:55;16.50;99.90
61004;DHT22;46889;37.310;13.582;2023-02-23T08:32:22;16.80;99.90
61004;DHT22;46889;37.310;13.582;2023-02-23T08:34:48;17.40;99.90
61004;DHT22;46889;37.310;13.582;2023-02-23T08:37:15;17.80;99.90
61004;DHT22;46889;37.310;13.582;2023-02-23T08:39:46;17.90;99.90
61004;DHT22;46889;37.310;13.582;2023-02-23T08:42:16;18.10;99.90
61004;DHT22;46889;37.310;13.582;2023-02-23T08:44:42;18.20;99.90
61004;DHT22;46889;37.310;13.582;2023-02-23T08:47:10;18.70;99.90
61004;DHT22;46889;37.310;13.582;2023-02-23T08:49:36;18.90;99.90
61004;DHT22;46889;37.310;13.582;2023-02-23T08:52:02;19.00;99.90
61004;DHT22;46889;37.310;13.582;2023-02-23T08:54:38;19.10;99.90
61004;DHT22;46889;37.310;13.582;2023-02-23T08:57:04;19.40;99.90
61004;DHT22;46889;37.310;13.582;2023-02-23T08:59:31;19.30;99.90
61004;DHT22;46889;37.310;13.582;2023-02-23T09:01:57;19.10;99.90
61004;DHT22;46889;37.310;13.582;2023-02-23T09:04:23;19.20;99.90
61004;DHT22;46889;37.310;13.582;2023-02-23T09:06:49;19.00;99.90
61004;DHT22;46889;37.310;13.582;2023-02-23T09:09:16;19.20;99.90
61004;DHT22;46889;37.310;13.582;2023-02-23T09:11:43;18.90;99.90
61004;DHT22;46889;37.310;13.582;2023-02-23T09:14:09;19.00;99.90
61004;DHT22;46889;37.310;13.582;2023-02-23T09:16:41;19.00;99.90
61004;DHT22;46889;37.310;13.582;2023-02-23T09:19:09;18.50;99.90
61004;DHT22;46889;37.310;13.582;2023-02-23T09:21:35;17.80;99.90
61004;DHT22;46889;37.310;13.582;2023-02-23T09:24:02;18.00;99.90
61004;DHT22;46889;37.310;13.582;2023-02-23T09:26:28;18.10;99.90
61004;DHT22;46889;37.310;13.582;2023-02-23T09:28:55;18.40;99.90
61004;DHT22;46889;37.310;13.582;2023-02-23T09:31:23;18.20;99.90
61004;DHT22;46889;37.310;13.582;2023-02-23T09:33:52;18.40;99.90
61004;DHT22;46889;37.310;13.582;2023-02-23T09:36:22;18.50;99.90
61004;DHT22;46889;37.310;13.582;2023-02-23T09:38:51;18.30;99.90
61004;DHT22;46889;37.310;13.582;2023-02-23T09:44:15;18.20;99.90
61004;DHT22;46889;37.310;13.582;2023-02-23T09:49:32;17.50;99.90
61004;DHT22;46889;37.310;13.582;2023-02-23T09:52:00;17.60;99.90
61004;DHT22;46889;37.310;13.582;2023-02-23T09:54:32;17.70;99.90
61004;DHT22;46889;37.310;13.582;2023-02-23T09:57:06;17.70;99.90
61004;DHT22;46889;37.310;13.582;2023-02-23T09:59:35;18.00;99.90
61004;DHT22;46889;37.310;13.582;2023-02-23T10:04:46;17.90;99.90
61004;DHT22;46889;37.310;13.582;2023-02-23T10:15:49;17.90;99.90
61004;DHT22;46889;37.310;13.582;2023-02-23T10:18:57;17.70;99.90
61004;DHT22;46889;37.310;13.582;2023-02-23T10:24:16;17.60;99.90
61004;DHT22;46889;37.310;13.582;2023-02-23T10:26:54;17.70;99.90
61004;DHT22;46889;37.310;13.582;2023-02-23T10:29:34;17.50;99.90
61004;DHT22;46889;37.310;13.582;2023-02-23T10:32:06;17.30;99.90
61004;DHT22;46889;37.310;13.582;2023-02-23T10:34:37;17.20;99.90
61004;DHT22;46889;37.310;13.582;2023-02-23T10:37:06;17.30;99.90
61004;DHT22;46889;37.310;13.582;2023-02-23T10:39:36;17.50;99.90
61004;DHT22;46889;37.310;13.582;2023-02-23T10:42:04;17.80;99.90
61004;DHT22;46889;37.310;13.582;2023-02-23T10:44:31;17.60;99.90
61004;DHT22;46889;37.310;13.582;2023-02-23T10:47:09;17.70;99.90
61004;DHT22;46889;37.310;13.582;2023-02-23T10:49:47;17.60;99.90
61004;DHT22;46889;37.310;13.582;2023-02-23T10:52:26;18.00;99.90
61004;DHT22;46889;37.310;13.582;2023-02-23T10:54:54;18.20;99.90
61004;DHT22;46889;37.310;13.582;2023-02-23T10:57:32;17.90;99.90
61004;DHT22;46889;37.310;13.582;2023-02-23T11:02:46;17.70;99.90
61004;DHT22;46889;37.310;13.582;2023-02-23T11:05:36;17.90;99.90
61004;DHT22;46889;37.310;13.582;2023-02-23T11:08:31;17.60;99.90
61004;DHT22;46889;37.310;13.582;2023-02-23T11:13:44;17.90;99.90
61004;DHT22;46889;37.310;13.582;2023-02-23T11:16:25;17.70;99.90
61004;DHT22;46889;37.310;13.582;2023-02-23T11:18:57;17.70;99.90
61004;DHT22;46889;37.310;13.582;2023-02-23T11:21:33;17.70;99.90
61004;DHT22;46889;37.310;13.582;2023-02-23T11:26:46;17.90;99.90
61004;DHT22;46889;37.310;13.582;2023-02-23T11:29:20;17.90;99.90
61004;DHT22;46889;37.310;13.582;2023-02-23T11:31:57;18.10;99.90
61004;DHT22;46889;37.310;13.582;2023-02-23T11:34:36;18.20;99.90
61004;DHT22;46889;37.310;13.582;2023-02-23T11:37:17;18.20;99.90
61004;DHT22;46889;37.310;13.582;2023-02-23T11:40:16;18.60;99.90
61004;DHT22;46889;37.310;13.582;2023-02-23T11:43:13;18.60;99.90
61004;DHT22;46889;37.310;13.582;2023-02-23T11:45:46;18.50;99.90
61004;DHT22;46889;37.310;13.582;2023-02-23T11:48:32;18.40;99.90
61004;DHT22;46889;37.310;13.582;2023-02-23T11:50:59;18.20;99.90
61004;DHT22;46889;37.310;13.582;2023-02-23T11:53:34;18.20;99.90
61004;DHT22;46889;37.310;13.582;2023-02-23T11:56:02;18.30;99.90
61004;DHT22;46889;37.310;13.582;2023-02-23T11:59:15;18.00;99.90
61004;DHT22;46889;37.310;13.582;2023-02-23T12:01:53;17.70;99.90
61004;DHT22;46889;37.310;13.582;2023-02-23T12:04:34;17.70;99.90
61004;DHT22;46889;37.310;13.582;2023-02-23T12:10:02;17.90;99.90
61004;DHT22;46889;37.310;13.582;2023-02-23T12:12:30;17.80;99.90
61004;DHT22;46889;37.310;13.582;2023-02-23T12:15:05;18.10;99.90
61004;DHT22;46889;37.310;13.582;2023-02-23T12:17:42;18.00;99.90
61004;DHT22;46889;37.310;13.582;2023-02-23T12:20:20;18.10;99.90
61004;DHT22;46889;37.310;13.582;2023-02-23T12:23:01;18.50;99.90
61004;DHT22;46889;37.310;13.582;2023-02-23T12:28:39;18.00;99.90
61004;DHT22;46889;37.310;13.582;2023-02-23T12:31:43;17.70;99.90
61004;DHT22;46889;37.310;13.582;2023-02-23T12:34:27;18.00;99.90
61004;DHT22;46889;37.310;13.582;2023-02-23T12:39:43;18.20;99.90
61004;DHT22;46889;37.310;13.582;2023-02-23T12:45:04;18.70;99.90
61004;DHT22;46889;37.310;13.582;2023-02-23T12:50:51;18.50;99.90
61004;DHT22;46889;37.310;13.582;2023-02-23T12:53:36;18.80;99.90
61004;DHT22;46889;37.310;13.582;2023-02-23T12:56:11;18.70;99.90
61004;DHT22;46889;37.310;13.582;2023-02-23T12:58:57;18.60;99.90
61004;DHT22;46889;37.310;13.582;2023-02-23T13:01:58;18.70;99.90
61004;DHT22;46889;37.310;13.582;2023-02-23T13:12:47;18.50;99.90
61004;DHT22;46889;37.310;13.582;2023-02-23T13:15:52;18.30;99.90
61004;DHT22;46889;37.310;13.582;2023-02-23T13:18:28;18.30;99.90
61004;DHT22;46889;37.310;13.582;2023-02-23T13:26:10;18.40;99.90
61004;DHT22;46889;37.310;13.582;2023-02-23T13:31:25;18.50;99.90
61004;DHT22;46889;37.310;13.582;2023-02-23T13:33:54;18.30;99.90
61004;DHT22;46889;37.310;13.582;2023-02-23T13:36:21;18.20;99.90
61004;DHT22;46889;37.310;13.582;2023-02-23T13:42:04;18.40;99.90
61004;DHT22;46889;37.310;13.582;2023-02-23T13:45:03;18.50;99.90
61004;DHT22;46889;37.310;13.582;2023-02-23T13:53:46;18.70;99.90
61004;DHT22;46889;37.310;13.582;2023-02-23T13:56:28;18.40;99.90
61004;DHT22;46889;37.310;13.582;2023-02-23T13:59:03;18.40;99.90
61004;DHT22;46889;37.310;13.582;2023-02-23T14:01:38;18.20;99.90
61004;DHT22;46889;37.310;13.582;2023-02-23T14:04:12;17.90;99.90
61004;DHT22;46889;37.310;13.582;2023-02-23T14:06:48;18.20;99.90
61004;DHT22;46889;37.310;13.582;2023-02-23T14:09:34;17.90;99.90
61004;DHT22;46889;37.310;13.582;2023-02-23T14:12:14;18.00;99.90
61004;DHT22;46889;37.310;13.582;2023-02-23T14:14:45;18.00;99.90
61004;DHT22;46889;37.310;13.582;2023-02-23T14:20:06;18.10;99.90
61004;DHT22;46889;37.310;13.582;2023-02-23T14:23:26;18.40;99.90
61004;DHT22;46889;37.310;13.582;2023-02-23T14:32:25;17.70;99.90
61004;DHT22;46889;37.310;13.582;2023-02-23T14:35:00;17.60;99.90
61004;DHT22;46889;37.310;13.582;2023-02-23T14:37:38;17.70;99.90
61004;DHT22;46889;37.310;13.582;2023-02-23T14:40:23;17.70;99.90
61004;DHT22;46889;37.310;13.582;2023-02-23T14:43:00;17.80;99.90
61004;DHT22;46889;37.310;13.582;2023-02-23T14:45:36;17.90;99.90
61004;DHT22;46889;37.310;13.582;2023-02-23T14:48:09;17.80;99.90
61004;DHT22;46889;37.310;13.582;2023-02-23T14:50:38;18.00;99.90
61004;DHT22;46889;37.310;13.582;2023-02-23T14:53:17;18.10;99.90
61004;DHT22;46889;37.310;13.582;2023-02-23T14:55:45;18.20;99.90
61004;DHT22;46889;37.310;13.582;2023-02-23T15:00:42;18.00;99.90
61004;DHT22;46889;37.310;13.582;2023-02-23T15:03:12;18.00;99.90
61004;DHT22;46889;37.310;13.582;2023-02-23T15:06:00;17.70;99.90
61004;DHT22;46889;37.310;13.582;2023-02-23T15:08:34;17.70;99.90
61004;DHT22;46889;37.310;13.582;2023-02-23T15:11:12;17.70;99.90
61004;DHT22;46889;37.310;13.582;2023-02-23T15:13:46;17.80;99.90
61004;DHT22;46889;37.310;13.582;2023-02-23T15:16:29;17.60;99.90
61004;DHT22;46889;37.310;13.582;2023-02-23T15:18:57;17.60;99.90
61004;DHT22;46889;37.310;13.582;2023-02-23T15:21:24;17.60;99.90
61004;DHT22;46889;37.310;13.582;2023-02-23T15:23:53;17.70;99.90
61004;DHT22;46889;37.310;13.582;2023-02-23T15:26:27;17.70;99.90
61004;DHT22;46889;37.310;13.582;2023-02-23T15:29:28;17.60;99.90
61004;DHT22;46889;37.310;13.582;2023-02-23T15:31:55;17.50;99.90
61004;DHT22;46889;37.310;13.582;2023-02-23T15:34:26;17.60;99.90
61004;DHT22;46889;37.310;13.582;2023-02-23T15:37:03;17.40;99.90
61004;DHT22;46889;37.310;13.582;2023-02-23T15:39:43;17.50;99.90
61004;DHT22;46889;37.310;13.582;2023-02-23T15:42:13;17.40;99.90
61004;DHT22;46889;37.310;13.582;2023-02-23T15:44:42;17.50;99.90
61004;DHT22;46889;37.310;13.582;2023-02-23T15:47:32;17.60;99.90
61004;DHT22;46889;37.310;13.582;2023-02-23T15:50:12;17.40;99.90
61004;DHT22;46889;37.310;13.582;2023-02-23T15:52:45;17.30;99.90
61004;DHT22;46889;37.310;13.582;2023-02-23T15:55:17;17.20;99.90
61004;DHT22;46889;37.310;13.582;2023-02-23T15:57:51;17.00;99.90
61004;DHT22;46889;37.310;13.582;2023-02-23T16:00:28;17.00;99.90
61004;DHT22;46889;37.310;13.582;2023-02-23T16:03:05;16.90;99.90
61004;DHT22;46889;37.310;13.582;2023-02-23T16:05:34;16.80;99.90
61004;DHT22;46889;37.310;13.582;2023-02-23T16:08:24;16.70;99.90
61004;DHT22;46889;37.310;13.582;2023-02-23T16:11:14;16.70;99.90
61004;DHT22;46889;37.310;13.582;2023-02-23T16:13:45;16.40;99.90
61004;DHT22;46889;37.310;13.582;2023-02-23T16:16:13;16.30;99.90
61004;DHT22;46889;37.310;13.582;2023-02-23T16:18:46;16.10;99.90
61004;DHT22;46889;37.310;13.582;2023-02-23T16:21:23;16.10;99.90
61004;DHT22;46889;37.310;13.582;2023-02-23T16:23:55;15.90;99.90
61004;DHT22;46889;37.310;13.582;2023-02-23T16:26:41;15.90;99.90
61004;DHT22;46889;37.310;13.582;2023-02-23T16:29:12;15.90;99.90
61004;DHT22;46889;37.310;13.582;2023-02-23T16:31:44;15.80;99.90
61004;DHT22;46889;37.310;13.582;2023-02-23T16:34:54;15.70;99.90
61004;DHT22;46889;37.310;13.582;2023-02-23T16:37:23;15.50;99.90
61004;DHT22;46889;37.310;13.582;2023-02-23T16:39:51;15.40;99.90
61004;DHT22;46889;37.310;13.582;2023-02-23T16:42:33;15.30;99.90
61004;DHT22;46889;37.310;13.582;2023-02-23T16:45:00;15.20;99.90
61004;DHT22;46889;37.310;13.582;2023-02-23T16:47:42;15.20;99.90
61004;DHT22;46889;37.310;13.582;2023-02-23T16:50:18;15.00;99.90
61004;DHT22;46889;37.310;13.582;2023-02-23T16:52:46;15.00;99.90
61004;DHT22;46889;37.310;13.582;2023-02-23T16:55:17;15.00;99.90
61004;DHT22;46889;37.310;13.582;2023-02-23T16:57:47;14.90;99.90
61004;DHT22;46889;37.310;13.582;2023-02-23T17:00:27;14.80;99.90
61004;DHT22;46889;37.310;13.582;2023-02-23T17:02:54;14.80;99.90
61004;DHT22;46889;37.310;13.582;2023-02-23T17:05:22;14.70;99.90
61004;DHT22;46889;37.310;13.582;2023-02-23T17:07:51;14.60;99.90
61004;DHT22;46889;37.310;13.582;2023-02-23T17:10:23;14.50;99.90
61004;DHT22;46889;37.310;13.582;2023-02-23T17:12:51;14.50;99.90
61004;DHT22;46889;37.310;13.582;2023-02-23T17:15:18;14.50;99.90
61004;DHT22;46889;37.310;13.582;2023-02-23T17:17:45;14.30;99.90
61004;DHT22;46889;37.310;13.582;2023-02-23T17:20:11;14.20;99.90
61004;DHT22;46889;37.310;13.582;2023-02-23T17:22:44;14.10;99.90
61004;DHT22;46889;37.310;13.582;2023-02-23T17:25:10;14.00;99.90
61004;DHT22;46889;37.310;13.582;2023-02-23T17:27:36;13.80;99.90
61004;DHT22;46889;37.310;13.582;2023-02-23T17:30:03;13.70;99.90
61004;DHT22;46889;37.310;13.582;2023-02-23T17:32:29;13.70;99.90
61004;DHT22;46889;37.310;13.582;2023-02-23T17:34:55;13.70;99.90
61004;DHT22;46889;37.310;13.582;2023-02-23T17:37:21;13.80;99.90
61004;DHT22;46889;37.310;13.582;2023-02-23T17:39:48;13.80;99.90
61004;DHT22;46889;37.310;13.582;2023-02-23T17:42:15;13.90;99.90
61004;DHT22;46889;37.310;13.582;2023-02-23T17:44:42;14.00;99.90
61004;DHT22;46889;37.310;13.582;2023-02-23T17:47:14;14.00;99.90